createdAt,value
2019-04-10T00:00:35.087Z,66.40
2019-04-10T00:03:04.116Z,66.24
2019-04-10T00:05:32.566Z,66.38
2019-04-10T00:08:01.864Z,66.42
2019-04-10T00:10:30.418Z,65.84
2019-04-10T00:12:58.768Z,66.23
2019-04-10T00:15:27.074Z,66.39
2019-04-10T00:17:55.680Z,66.28
2019-04-10T00:20:24.592Z,66.55
2019-04-10T00:22:52.854Z,66.40
2019-04-10T00:25:21.156Z,66.41
2019-04-10T00:27:50.700Z,66.54
2019-04-10T00:30:19.337Z,66.62
2019-04-10T00:32:48.082Z,66.77
2019-04-10T00:35:16.452Z,66.90
2019-04-10T00:37:44.995Z,67.09
2019-04-10T00:40:13.498Z,67.13
2019-04-10T00:42:41.818Z,67.62
2019-04-10T00:45:11.260Z,67.52
2019-04-10T00:47:39.704Z,67.76
2019-04-10T00:50:08.496Z,68.16
2019-04-10T00:52:37.180Z,68.36
2019-04-10T00:55:06.041Z,68.68
2019-04-10T00:57:34.366Z,68.50
2019-04-10T01:00:02.675Z,68.37
2019-04-10T01:02:30.991Z,68.67
2019-04-10T01:04:59.292Z,69.00
2019-04-10T01:07:36.511Z,69.14
2019-04-10T01:09:57.715Z,69.11
2019-04-10T01:12:26.281Z,69.31
2019-04-10T01:14:54.595Z,69.29
2019-04-10T01:17:22.907Z,69.49
2019-04-10T01:19:52.265Z,68.93
2019-04-10T01:22:21.232Z,69.22
2019-04-10T01:24:50.204Z,69.03
2019-04-10T01:27:18.588Z,69.24
2019-04-10T01:29:46.913Z,69.30
2019-04-10T01:32:15.445Z,69.08
2019-04-10T01:34:43.781Z,69.40
2019-04-10T01:37:12.419Z,69.55
2019-04-10T01:39:40.675Z,69.87
2019-04-10T01:42:08.993Z,69.96
2019-04-10T01:44:37.308Z,70.05
2019-04-10T01:47:06.683Z,70.39
2019-04-10T01:49:35.008Z,70.39
2019-04-10T01:52:03.335Z,70.45
2019-04-10T01:54:31.658Z,70.71
2019-04-10T01:56:59.976Z,70.74
2019-04-10T01:59:30.381Z,70.81
2019-04-10T02:02:00.994Z,71.16
2019-04-10T02:04:29.329Z,71.21
2019-04-10T02:06:58.001Z,71.42
2019-04-10T02:09:27.525Z,71.50
2019-04-10T02:11:56.514Z,72.04
2019-04-10T02:14:25.165Z,71.84
2019-04-10T02:16:54.906Z,72.01
2019-04-10T02:19:23.874Z,72.54
2019-04-10T02:21:52.282Z,72.49
2019-04-10T02:24:20.612Z,72.61
2019-04-10T02:26:49.842Z,72.55
2019-04-10T02:29:18.077Z,73.18
2019-04-10T02:31:48.338Z,73.45
2019-04-10T02:34:17.300Z,73.32
2019-04-10T02:36:47.423Z,73.48
2019-04-10T02:39:25.601Z,73.69
2019-04-10T02:41:47.604Z,73.46
2019-04-10T02:44:16.436Z,73.72
2019-04-10T02:46:45.189Z,73.40
2019-04-10T02:49:14.322Z,73.52
2019-04-10T02:51:43.290Z,73.55
2019-04-10T02:54:13.596Z,73.55
2019-04-10T02:56:43.238Z,73.59
2019-04-10T02:59:13.143Z,73.50
2019-04-10T03:01:41.730Z,73.47
2019-04-10T03:04:11.873Z,73.71
2019-04-10T03:06:40.021Z,73.76
2019-04-10T03:09:28.171Z,73.69
2019-04-10T03:11:39.673Z,73.57
2019-04-10T03:14:08.140Z,73.46
2019-04-10T03:16:37.514Z,73.81
2019-04-10T03:19:05.914Z,73.62
2019-04-10T03:21:35.353Z,73.34
2019-04-10T03:24:04.297Z,73.33
2019-04-10T03:26:32.648Z,73.31
2019-04-10T03:29:01.008Z,73.36
2019-04-10T03:31:30.137Z,73.51
2019-04-10T03:34:13.254Z,73.34
2019-04-10T03:36:41.862Z,73.66
2019-04-10T03:39:10.627Z,73.84
2019-04-10T03:41:40.156Z,73.75
2019-04-10T03:44:08.417Z,73.42
2019-04-10T03:46:38.737Z,73.39
2019-04-10T03:49:07.074Z,73.28
2019-04-10T03:51:35.399Z,73.46
2019-04-10T03:54:04.731Z,73.18
2019-04-10T03:56:33.962Z,73.17
2019-04-10T03:59:02.382Z,73.39
2019-04-10T04:01:31.923Z,73.41
2019-04-10T04:04:01.391Z,72.86
2019-04-10T04:06:29.863Z,72.77
2019-04-10T04:09:06.649Z,73.32
2019-04-10T04:11:29.331Z,73.45
2019-04-10T04:13:57.788Z,73.38
2019-04-10T04:16:26.871Z,72.79
2019-04-10T04:18:55.227Z,73.20
2019-04-10T04:21:23.762Z,73.11
2019-04-10T04:23:53.269Z,72.79
2019-04-10T04:26:23.174Z,73.25
2019-04-10T04:28:51.775Z,73.41
2019-04-10T04:31:20.250Z,73.29
2019-04-10T04:33:48.971Z,73.40
2019-04-10T04:36:18.252Z,73.48
2019-04-10T04:38:46.663Z,73.40
2019-04-10T04:41:15.430Z,73.05
2019-04-10T04:43:45.988Z,73.24
2019-04-10T04:46:14.119Z,73.86
2019-04-10T04:48:43.329Z,73.51
2019-04-10T04:51:11.737Z,73.22
2019-04-10T04:53:40.045Z,72.73
2019-04-10T04:56:09.409Z,73.05
2019-04-10T04:58:38.175Z,73.26
2019-04-10T05:01:06.584Z,73.29
2019-04-10T05:03:35.423Z,72.99
2019-04-10T05:06:03.880Z,72.23
2019-04-10T05:08:32.388Z,72.72
2019-04-10T05:11:00.697Z,72.93
2019-04-10T05:13:28.996Z,73.17
2019-04-10T05:15:57.647Z,73.08
2019-04-10T05:18:25.953Z,73.00
2019-04-10T05:20:54.734Z,72.41
2019-04-10T05:23:23.131Z,71.71
2019-04-10T05:25:51.937Z,72.38
2019-04-10T05:28:20.560Z,72.16
2019-04-10T05:30:48.847Z,70.95
2019-04-10T05:33:17.264Z,71.31
2019-04-10T05:35:45.584Z,71.29
2019-04-10T05:38:14.531Z,69.34
2019-04-10T05:40:44.180Z,68.82
2019-04-10T05:43:13.446Z,69.11
2019-04-10T05:45:42.240Z,69.35
2019-04-10T05:48:11.107Z,69.26
2019-04-10T05:50:39.877Z,69.40
2019-04-10T05:53:08.546Z,69.57
2019-04-10T05:55:36.914Z,69.73
2019-04-10T05:58:05.500Z,69.37
2019-04-10T06:00:34.579Z,69.79
2019-04-10T06:03:03.945Z,68.79
2019-04-10T06:05:32.676Z,69.29
2019-04-10T06:08:01.348Z,68.93
2019-04-10T06:10:30.141Z,68.65
2019-04-10T06:12:59.185Z,68.92
2019-04-10T06:15:28.723Z,67.80
2019-04-10T06:17:57.037Z,67.06
2019-04-10T06:20:25.607Z,67.37
2019-04-10T06:22:54.905Z,68.12
2019-04-10T06:25:24.691Z,67.73
2019-04-10T06:27:53.351Z,67.77
2019-04-10T06:30:21.716Z,67.81
2019-04-10T06:32:50.012Z,68.24
2019-04-10T06:35:19.695Z,67.82
2019-04-10T06:37:48.406Z,67.28
2019-04-10T06:40:21.103Z,67.73
2019-04-10T06:42:50.801Z,67.13
2019-04-10T06:45:17.781Z,67.31
2019-04-10T06:47:46.650Z,67.12
2019-04-10T06:50:15.336Z,67.49
2019-04-10T06:52:43.633Z,67.83
2019-04-10T06:55:13.222Z,67.22
2019-04-10T06:57:50.928Z,67.01
2019-04-10T07:00:15.241Z,67.16
2019-04-10T07:02:44.361Z,67.67
2019-04-10T07:05:13.864Z,66.93
2019-04-10T07:07:51.361Z,67.35
2019-04-10T07:10:22.536Z,67.17
2019-04-10T07:12:43.881Z,67.94
2019-04-10T07:15:12.528Z,67.08
2019-04-10T07:17:41.869Z,66.84
2019-04-10T07:20:11.005Z,66.99
2019-04-10T07:22:45.161Z,66.37
2019-04-10T07:25:12.462Z,66.56
2019-04-10T07:27:41.442Z,67.29
2019-04-10T07:30:10.161Z,67.15
2019-04-10T07:32:41.284Z,66.96
2019-04-10T07:35:10.916Z,66.78
2019-04-10T07:37:40.381Z,66.92
2019-04-10T07:40:08.899Z,66.83
2019-04-10T07:42:40.279Z,66.64
2019-04-10T07:45:09.467Z,66.88
2019-04-10T07:47:38.149Z,66.13
2019-04-10T07:50:08.795Z,66.23
2019-04-10T07:52:37.400Z,66.23
2019-04-10T07:55:06.610Z,65.84
2019-04-10T07:57:36.270Z,65.49
2019-04-10T08:00:07.355Z,64.61
2019-04-10T08:02:35.935Z,65.64
2019-04-10T08:05:05.782Z,65.87
2019-04-10T08:07:36.320Z,65.90
2019-04-10T08:10:06.253Z,65.63
2019-04-10T08:12:42.441Z,65.66
2019-04-10T08:15:06.971Z,65.70
2019-04-10T08:17:36.734Z,65.87
2019-04-10T08:20:05.924Z,65.00
2019-04-10T08:22:34.983Z,65.15
2019-04-10T08:25:04.653Z,64.62
2019-04-10T08:27:34.126Z,64.57
2019-04-10T08:30:03.318Z,65.01
2019-04-10T08:32:32.227Z,65.47
2019-04-10T08:35:01.659Z,64.43
2019-04-10T08:37:29.972Z,64.56
2019-04-10T08:39:59.045Z,63.39
2019-04-10T08:42:27.340Z,63.45
2019-04-10T08:44:56.370Z,64.10
2019-04-10T08:47:24.933Z,64.06
2019-04-10T08:49:53.216Z,63.84
2019-04-10T08:52:22.089Z,63.15
2019-04-10T08:54:51.210Z,62.45
2019-04-10T08:57:19.832Z,62.72
2019-04-10T08:59:48.413Z,63.13
2019-04-10T09:02:18.005Z,63.09
2019-04-10T09:04:46.812Z,62.72
2019-04-10T09:07:15.861Z,62.63
2019-04-10T09:09:44.199Z,62.75
2019-04-10T09:12:13.603Z,62.85
2019-04-10T09:14:41.969Z,62.37
2019-04-10T09:17:11.204Z,62.63
2019-04-10T09:19:40.244Z,62.23
2019-04-10T09:22:08.674Z,61.80
2019-04-10T09:24:37.003Z,61.24
2019-04-10T09:27:05.696Z,61.42
2019-04-10T09:29:34.030Z,61.71
2019-04-10T09:32:02.550Z,61.68
2019-04-10T09:34:31.821Z,61.42
2019-04-10T09:37:00.150Z,61.08
2019-04-10T09:39:29.520Z,60.79
2019-04-10T09:41:58.735Z,60.31
2019-04-10T09:44:27.822Z,59.90
2019-04-10T09:46:56.511Z,60.00
2019-04-10T09:49:33.803Z,59.72
2019-04-10T09:51:54.866Z,60.28
2019-04-10T09:54:23.997Z,59.75
2019-04-10T09:56:52.831Z,60.10
2019-04-10T09:59:31.318Z,60.02
2019-04-10T10:01:51.432Z,59.25
2019-04-10T10:04:19.755Z,59.02
2019-04-10T10:06:48.075Z,59.53
2019-04-10T10:09:17.545Z,58.26
2019-04-10T10:11:46.922Z,58.89
2019-04-10T10:14:15.278Z,58.29
2019-04-10T10:16:44.219Z,58.11
2019-04-10T10:19:12.663Z,57.32
2019-04-10T10:21:40.980Z,57.49
2019-04-10T10:24:09.266Z,57.14
2019-04-10T10:26:37.924Z,56.76
2019-04-10T10:29:06.650Z,56.73
2019-04-10T10:31:36.076Z,57.46
2019-04-10T10:34:04.397Z,57.38
2019-04-10T10:36:39.553Z,56.42
2019-04-10T10:39:10.596Z,55.26
2019-04-10T10:41:34.748Z,55.96
2019-04-10T10:44:03.134Z,55.16
2019-04-10T10:46:31.689Z,56.13
2019-04-10T10:49:00.132Z,55.00
2019-04-10T10:51:28.968Z,54.71
2019-04-10T10:54:00.102Z,54.71
2019-04-10T10:56:28.627Z,54.62
2019-04-10T10:58:58.916Z,53.63
2019-04-10T11:01:27.590Z,53.52
2019-04-10T11:03:56.362Z,53.99
2019-04-10T11:06:24.810Z,53.56
2019-04-10T11:08:53.748Z,54.27
2019-04-10T11:11:22.578Z,52.77
2019-04-10T11:13:50.983Z,53.29
2019-04-10T11:16:19.402Z,53.04
2019-04-10T11:18:48.441Z,53.31
2019-04-10T11:21:16.933Z,52.63
2019-04-10T11:23:45.250Z,53.26
2019-04-10T11:26:20.017Z,52.45
2019-04-10T11:28:45.608Z,53.39
2019-04-10T11:31:15.902Z,52.77
2019-04-10T11:33:49.807Z,53.45
2019-04-10T11:36:15.220Z,53.35
2019-04-10T11:38:45.348Z,53.56
2019-04-10T11:41:14.994Z,53.31
2019-04-10T11:43:44.605Z,52.75
2019-04-10T11:46:13.700Z,52.86
2019-04-10T11:48:45.429Z,52.64
2019-04-10T11:56:12.657Z,52.35
2019-04-10T11:58:49.482Z,52.83
2019-04-10T12:01:12.905Z,51.75
2019-04-10T12:03:46.993Z,52.24
2019-04-10T12:06:13.173Z,52.51
2019-04-10T12:11:15.520Z,51.35
2019-04-10T12:13:42.731Z,50.52
2019-04-10T12:16:11.138Z,51.53
2019-04-10T12:18:40.485Z,51.16
2019-04-10T12:21:09.441Z,51.35
2019-04-10T12:23:38.142Z,51.35
2019-04-10T12:26:07.511Z,51.49
2019-04-10T12:28:36.140Z,51.41
2019-04-10T12:31:05.904Z,51.30
2019-04-10T12:33:34.290Z,51.37
2019-04-10T12:36:02.663Z,50.85
2019-04-10T12:38:31.885Z,51.05
2019-04-10T12:41:01.351Z,50.18
2019-04-10T12:43:29.808Z,51.02
2019-04-10T12:45:58.110Z,50.28
2019-04-10T12:48:26.444Z,51.03
2019-04-10T12:50:55.159Z,51.25
2019-04-10T12:53:23.635Z,49.83
2019-04-10T12:55:51.941Z,50.14
2019-04-10T12:58:20.694Z,50.11
2019-04-10T13:00:50.594Z,51.32
2019-04-10T13:03:18.952Z,50.66
2019-04-10T13:05:47.330Z,49.84
2019-04-10T13:08:21.872Z,49.58
2019-04-10T13:10:47.614Z,49.62
2019-04-10T13:13:16.311Z,49.92
2019-04-10T13:15:45.573Z,49.85
2019-04-10T13:18:14.337Z,49.27
2019-04-10T13:20:42.649Z,49.50
2019-04-10T13:23:10.965Z,47.97
2019-04-10T13:25:39.283Z,48.36
2019-04-10T13:28:08.733Z,48.68
2019-04-10T13:30:46.804Z,47.87
2019-04-10T13:33:08.691Z,48.04
2019-04-10T13:35:37.876Z,47.97
2019-04-10T13:38:06.767Z,48.04
2019-04-10T13:40:35.320Z,48.44
2019-04-10T13:43:03.794Z,48.01
2019-04-10T13:45:32.276Z,47.44
2019-04-10T13:48:00.933Z,47.96
2019-04-10T13:50:29.252Z,47.73
2019-04-10T13:52:57.598Z,48.40
2019-04-10T13:55:26.365Z,48.79
2019-04-10T13:57:55.043Z,48.29
2019-04-10T14:00:43.083Z,48.06
2019-04-10T14:03:12.262Z,47.81
2019-04-10T14:05:41.233Z,47.89
2019-04-10T14:08:10.469Z,48.01
2019-04-10T14:10:41.195Z,47.04
2019-04-10T14:13:09.401Z,47.75
2019-04-10T14:15:37.714Z,48.20
2019-04-10T14:18:08.244Z,47.91
2019-04-10T14:20:37.566Z,47.39
2019-04-10T14:23:08.438Z,47.44
2019-04-10T14:25:42.088Z,47.32
2019-04-10T14:28:11.032Z,47.26
2019-04-10T14:30:45.283Z,46.91
2019-04-10T14:33:14.889Z,46.79
2019-04-10T14:35:43.237Z,46.50
2019-04-10T14:38:11.631Z,46.89
2019-04-10T14:40:40.217Z,46.87
2019-04-10T14:43:08.605Z,47.44
2019-04-10T14:45:37.429Z,47.27
2019-04-10T14:48:05.987Z,46.14
2019-04-10T14:50:34.719Z,46.57
2019-04-10T14:53:03.514Z,46.64
2019-04-10T14:55:31.973Z,46.03
2019-04-10T14:58:01.347Z,46.09
2019-04-10T15:00:31.321Z,45.86
2019-04-10T15:03:00.133Z,46.12
2019-04-10T15:05:28.551Z,46.15
2019-04-10T15:07:57.516Z,45.91
2019-04-10T15:10:25.851Z,46.66
2019-04-10T15:13:02.544Z,46.33
2019-04-10T15:15:24.482Z,47.20
2019-04-10T15:17:54.062Z,46.13
2019-04-10T15:20:22.859Z,45.68
2019-04-10T15:22:51.307Z,45.83
2019-04-10T15:25:19.606Z,45.87
2019-04-10T15:27:47.926Z,45.86
2019-04-10T15:30:16.295Z,44.43
2019-04-10T15:32:45.405Z,44.57
2019-04-10T15:35:14.270Z,44.74
2019-04-10T15:37:42.582Z,44.26
2019-04-10T15:40:18.467Z,44.33
2019-04-10T15:42:41.057Z,44.57
2019-04-10T15:45:10.610Z,44.40
2019-04-10T15:47:49.244Z,44.42
2019-04-10T15:50:10.276Z,44.99
2019-04-10T15:52:39.681Z,45.96
2019-04-10T15:55:08.263Z,45.55
2019-04-10T15:57:46.997Z,44.99
2019-04-10T16:00:10.779Z,44.82
2019-04-10T16:02:39.103Z,44.17
2019-04-10T16:05:09.041Z,44.47
2019-04-10T16:07:38.285Z,44.61
2019-04-10T16:10:28.874Z,44.87
2019-04-10T16:13:04.605Z,44.37
2019-04-10T16:15:40.827Z,44.19
2019-04-10T16:18:13.672Z,43.63
2019-04-10T16:20:43.226Z,43.48
2019-04-10T16:23:28.323Z,43.23
2019-04-10T16:25:55.357Z,43.97
2019-04-10T16:28:23.848Z,43.97
2019-04-10T16:30:52.245Z,44.26
2019-04-10T16:33:21.103Z,44.43
2019-04-10T16:35:49.384Z,44.55
2019-04-10T16:38:17.688Z,45.10
2019-04-10T16:40:46.075Z,45.28
2019-04-10T16:43:14.453Z,45.83
2019-04-10T16:45:43.189Z,45.95
2019-04-10T16:48:11.584Z,46.01
2019-04-10T16:50:39.869Z,45.73
2019-04-10T16:53:08.180Z,45.71
2019-04-10T16:55:36.703Z,45.52
2019-04-10T16:58:05.392Z,45.05
2019-04-10T17:00:34.076Z,45.02
2019-04-10T17:03:02.670Z,44.84
2019-04-10T17:05:33.600Z,45.20
2019-04-10T17:08:01.004Z,45.21
2019-04-10T17:10:29.565Z,45.86
2019-04-10T17:12:58.292Z,45.21
2019-04-10T17:15:28.056Z,45.64
2019-04-10T17:17:56.933Z,45.45
2019-04-10T17:20:26.657Z,45.33
2019-04-10T17:22:56.350Z,45.52
2019-04-10T17:25:24.750Z,45.74
2019-04-10T17:27:54.130Z,45.73
2019-04-10T17:30:23.951Z,45.90
2019-04-10T17:32:52.552Z,46.04
2019-04-10T17:35:21.325Z,46.23
2019-04-10T17:37:50.036Z,46.37
2019-04-10T17:40:30.061Z,45.97
2019-04-10T17:42:48.899Z,46.04
2019-04-10T17:45:18.424Z,46.00
2019-04-10T17:47:47.209Z,46.07
2019-04-10T17:50:16.446Z,45.92
2019-04-10T17:52:45.209Z,46.20
2019-04-10T17:55:13.607Z,46.31
2019-04-10T17:57:44.619Z,46.52
2019-04-10T18:00:22.984Z,46.48
2019-04-10T18:02:51.407Z,46.67
2019-04-10T18:05:20.366Z,46.89
2019-04-10T18:07:48.788Z,46.92
2019-04-10T18:10:17.166Z,47.03
2019-04-10T18:12:46.104Z,47.17
2019-04-10T18:15:15.684Z,47.25
2019-04-10T18:17:44.051Z,47.38
2019-04-10T18:20:12.380Z,47.45
2019-04-10T18:22:40.769Z,47.34
2019-04-10T18:25:09.699Z,47.49
2019-04-10T18:27:38.643Z,47.56
2019-04-10T18:30:07.877Z,47.68
2019-04-10T18:32:36.236Z,47.70
2019-04-10T18:35:06.774Z,47.78
2019-04-10T18:37:35.398Z,47.90
2019-04-10T18:40:05.362Z,47.99
2019-04-10T18:42:33.659Z,48.01
2019-04-10T18:45:02.012Z,48.16
2019-04-10T18:47:32.395Z,48.19
2019-04-10T18:50:01.156Z,48.22
2019-04-10T18:52:30.300Z,48.25
2019-04-10T18:54:58.612Z,48.29
2019-04-10T18:57:26.916Z,48.36
2019-04-10T18:59:56.836Z,48.37
2019-04-10T19:02:30.427Z,48.34
2019-04-10T19:05:19.383Z,48.30
2019-04-10T19:07:48.214Z,48.26
2019-04-10T19:10:17.802Z,47.91
2019-04-10T19:12:46.570Z,48.12
2019-04-10T19:15:14.992Z,48.02
2019-04-10T19:17:43.564Z,47.81
2019-04-10T19:20:11.890Z,47.91
2019-04-10T19:22:40.276Z,47.94
2019-04-10T19:25:08.797Z,47.95
2019-04-10T19:27:37.334Z,47.91
2019-04-10T19:30:08.394Z,47.93
2019-04-10T19:32:37.515Z,47.97
2019-04-10T19:35:07.141Z,48.16
2019-04-10T19:37:36.630Z,48.36
2019-04-10T19:40:07.132Z,48.63
2019-04-10T19:42:35.740Z,48.86
2019-04-10T19:45:06.091Z,49.07
2019-04-10T19:47:34.728Z,49.41
2019-04-10T19:50:03.477Z,49.72
2019-04-10T19:52:32.837Z,49.90
2019-04-10T19:55:01.579Z,50.00
2019-04-10T19:57:31.022Z,50.16
2019-04-10T20:00:00.038Z,50.31
2019-04-10T20:02:28.368Z,50.58
2019-04-10T20:04:56.970Z,50.77
2019-04-10T20:07:25.570Z,50.92
2019-04-10T20:09:54.917Z,51.15
2019-04-10T20:12:24.457Z,51.28
2019-04-10T20:14:53.342Z,51.44
2019-04-10T20:17:22.007Z,51.54
2019-04-10T20:19:51.783Z,51.57
2019-04-10T20:22:20.921Z,51.62
2019-04-10T20:24:50.312Z,51.89
2019-04-10T20:27:20.223Z,51.91
2019-04-10T20:29:48.751Z,51.56
2019-04-10T20:32:17.693Z,51.31
2019-04-10T20:34:45.978Z,51.45
2019-04-10T20:37:14.520Z,51.63
2019-04-10T20:39:42.875Z,51.76
2019-04-10T20:42:11.177Z,52.05
2019-04-10T20:44:39.468Z,52.22
2019-04-10T20:47:08.801Z,52.37
2019-04-10T20:49:38.435Z,52.56
2019-04-10T20:52:06.803Z,52.65
2019-04-10T20:54:35.384Z,52.62
2019-04-10T20:57:04.963Z,52.70
2019-04-10T20:59:34.976Z,52.95
2019-04-10T21:02:04.171Z,52.86
2019-04-10T21:04:33.759Z,52.89
2019-04-10T21:07:02.929Z,53.02
2019-04-10T21:09:32.057Z,52.95
2019-04-10T21:12:08.054Z,52.98
2019-04-10T21:14:31.644Z,53.15
2019-04-10T21:17:00.450Z,53.23
2019-04-10T21:19:29.067Z,53.28
2019-04-10T21:21:57.565Z,53.30
2019-04-10T21:24:25.891Z,53.46
2019-04-10T21:26:54.843Z,53.42
2019-04-10T21:29:25.496Z,53.54
2019-04-10T21:31:59.019Z,53.40
2019-04-10T21:34:29.035Z,53.46
2019-04-10T21:36:57.599Z,53.41
2019-04-10T21:39:27.631Z,53.52
2019-04-10T21:42:09.333Z,53.54
2019-04-10T21:44:26.713Z,53.42
2019-04-10T21:46:55.142Z,53.65
2019-04-10T21:49:24.027Z,53.54
2019-04-10T21:51:52.351Z,53.55
2019-04-10T21:54:20.951Z,53.50
2019-04-10T21:56:49.437Z,53.48
2019-04-10T21:59:18.346Z,53.50
2019-04-10T22:01:48.669Z,53.55
2019-04-10T22:04:17.335Z,53.59
2019-04-10T22:06:50.001Z,53.69
2019-04-10T22:09:22.949Z,53.79
2019-04-10T22:11:55.425Z,53.85
2019-04-10T22:14:23.847Z,53.94
2019-04-10T22:16:52.590Z,54.05
2019-04-10T22:19:21.072Z,54.06
2019-04-10T22:21:50.203Z,54.36
2019-04-10T22:24:18.714Z,54.33
2019-04-10T22:26:47.019Z,54.44
2019-04-10T22:29:15.318Z,54.55
2019-04-10T22:31:43.841Z,54.51
2019-04-10T22:34:12.117Z,54.73
2019-04-10T22:36:41.468Z,54.77
2019-04-10T22:39:11.547Z,54.81
2019-04-10T22:41:40.697Z,54.87
2019-04-10T22:44:09.727Z,54.95
2019-04-10T22:46:38.410Z,55.01
2019-04-10T22:49:06.803Z,54.94
2019-04-10T22:51:35.573Z,55.08
2019-04-10T22:54:04.139Z,55.14
2019-04-10T22:56:33.665Z,55.33
2019-04-10T22:59:02.331Z,55.46
2019-04-10T23:01:31.325Z,55.61
2019-04-10T23:04:00.010Z,55.75
2019-04-10T23:06:29.272Z,55.89
2019-04-10T23:08:58.071Z,56.06
2019-04-10T23:11:31.683Z,56.12
2019-04-10T23:13:56.429Z,56.38
2019-04-10T23:16:24.743Z,56.39
2019-04-10T23:18:53.931Z,56.58
2019-04-10T23:21:22.863Z,56.62
2019-04-10T23:23:51.603Z,56.96
2019-04-10T23:26:20.774Z,56.92
2019-04-10T23:28:50.161Z,57.25
2019-04-10T23:31:18.845Z,57.46
2019-04-10T23:33:48.159Z,57.39
2019-04-10T23:36:16.650Z,57.53
2019-04-10T23:38:45.890Z,57.62
2019-04-10T23:41:14.264Z,57.66
2019-04-10T23:43:42.583Z,57.76
2019-04-10T23:46:11.781Z,57.87
2019-04-10T23:48:41.213Z,57.94
2019-04-10T23:51:10.584Z,58.02
2019-04-10T23:53:39.066Z,58.12
2019-04-10T23:56:07.356Z,58.14
2019-04-10T23:58:35.687Z,58.23
